sensor_id;sensor_type;location;lat;lon;timestamp;pressure;altitude;pressure_sealevel;temperature;humidity
21276;BME280;36472;52.170;20.884;2024-02-04T00:01:02;99855.50;;;8.18;79.16
21276;BME280;36472;52.170;20.884;2024-02-04T00:03:51;99859.88;;;8.18;78.55
21276;BME280;36472;52.170;20.884;2024-02-04T00:06:20;99864.66;;;8.11;78.04
21276;BME280;36472;52.170;20.884;2024-02-04T00:08:49;99860.91;;;8.15;78.27
21276;BME280;36472;52.170;20.884;2024-02-04T00:11:18;99874.00;;;8.15;77.92
21276;BME280;36472;52.170;20.884;2024-02-04T00:13:49;99868.69;;;8.17;77.83
21276;BME280;36472;52.170;20.884;2024-02-04T00:16:18;99864.78;;;8.10;77.92
21276;BME280;36472;52.170;20.884;2024-02-04T00:18:47;99871.47;;;8.14;78.12
21276;BME280;36472;52.170;20.884;2024-02-04T00:21:16;99857.66;;;8.12;78.19
21276;BME280;36472;52.170;20.884;2024-02-04T00:23:45;99860.28;;;8.12;78.08
21276;BME280;36472;52.170;20.884;2024-02-04T00:26:14;99856.94;;;8.10;78.10
21276;BME280;36472;52.170;20.884;2024-02-04T00:28:43;99847.19;;;8.12;78.13
21276;BME280;36472;52.170;20.884;2024-02-04T00:31:13;99844.84;;;8.07;78.13
21276;BME280;36472;52.170;20.884;2024-02-04T00:33:42;99848.53;;;8.04;78.46
21276;BME280;36472;52.170;20.884;2024-02-04T00:36:11;99841.50;;;8.05;78.45
21276;BME280;36472;52.170;20.884;2024-02-04T00:38:40;99844.31;;;8.02;78.88
21276;BME280;36472;52.170;20.884;2024-02-04T00:41:09;99845.53;;;7.96;79.45
21276;BME280;36472;52.170;20.884;2024-02-04T00:43:38;99844.91;;;7.93;79.80
21276;BME280;36472;52.170;20.884;2024-02-04T00:46:07;99845.19;;;7.88;80.42
21276;BME280;36472;52.170;20.884;2024-02-04T00:48:39;99847.06;;;7.86;80.68
21276;BME280;36472;52.170;20.884;2024-02-04T00:51:09;99850.31;;;7.90;81.11
21276;BME280;36472;52.170;20.884;2024-02-04T00:53:41;99841.94;;;7.84;81.60
21276;BME280;36472;52.170;20.884;2024-02-04T00:56:09;99841.19;;;7.82;82.08
21276;BME280;36472;52.170;20.884;2024-02-04T00:58:39;99838.03;;;7.77;82.46
21276;BME280;36472;52.170;20.884;2024-02-04T01:01:08;99844.34;;;7.73;83.04
21276;BME280;36472;52.170;20.884;2024-02-04T01:03:38;99842.19;;;7.80;83.48
21276;BME280;36472;52.170;20.884;2024-02-04T01:06:07;99847.63;;;7.77;83.48
21276;BME280;36472;52.170;20.884;2024-02-04T01:08:37;99840.81;;;7.74;83.92
21276;BME280;36472;52.170;20.884;2024-02-04T01:11:06;99845.41;;;7.71;84.85
21276;BME280;36472;52.170;20.884;2024-02-04T01:13:35;99850.31;;;7.75;84.99
21276;BME280;36472;52.170;20.884;2024-02-04T01:16:05;99844.34;;;7.73;85.12
21276;BME280;36472;52.170;20.884;2024-02-04T01:18:34;99842.47;;;7.75;85.00
21276;BME280;36472;52.170;20.884;2024-02-04T01:21:05;99846.34;;;7.70;85.46
21276;BME280;36472;52.170;20.884;2024-02-04T01:23:35;99849.44;;;7.62;85.97
21276;BME280;36472;52.170;20.884;2024-02-04T01:26:04;99851.19;;;7.61;86.34
21276;BME280;36472;52.170;20.884;2024-02-04T01:28:33;99850.00;;;7.67;86.29
21276;BME280;36472;52.170;20.884;2024-02-04T01:31:03;99844.09;;;7.63;86.44
21276;BME280;36472;52.170;20.884;2024-02-04T01:33:32;99845.78;;;7.64;86.47
21276;BME280;36472;52.170;20.884;2024-02-04T01:36:01;99836.34;;;7.62;87.21
21276;BME280;36472;52.170;20.884;2024-02-04T01:38:32;99842.16;;;7.67;87.07
21276;BME280;36472;52.170;20.884;2024-02-04T01:41:00;99845.88;;;7.63;87.55
21276;BME280;36472;52.170;20.884;2024-02-04T01:43:30;99842.16;;;7.67;87.43
21276;BME280;36472;52.170;20.884;2024-02-04T01:45:58;99845.59;;;7.67;87.53
21276;BME280;36472;52.170;20.884;2024-02-04T01:48:29;99837.28;;;7.61;88.02
21276;BME280;36472;52.170;20.884;2024-02-04T01:51:00;99834.56;;;7.62;87.98
21276;BME280;36472;52.170;20.884;2024-02-04T01:53:34;99829.25;;;7.64;88.11
21276;BME280;36472;52.170;20.884;2024-02-04T01:56:03;99832.25;;;7.72;88.07
21276;BME280;36472;52.170;20.884;2024-02-04T01:58:34;99825.50;;;7.68;88.01
21276;BME280;36472;52.170;20.884;2024-02-04T02:01:03;99813.16;;;7.70;87.76
21276;BME280;36472;52.170;20.884;2024-02-04T02:03:34;99813.94;;;7.58;87.97
21276;BME280;36472;52.170;20.884;2024-02-04T02:06:05;99825.97;;;7.75;87.55
21276;BME280;36472;52.170;20.884;2024-02-04T02:08:36;99823.16;;;7.78;87.31
21276;BME280;36472;52.170;20.884;2024-02-04T02:11:11;99825.50;;;7.68;87.43
21276;BME280;36472;52.170;20.884;2024-02-04T02:13:45;99821.00;;;7.70;87.33
21276;BME280;36472;52.170;20.884;2024-02-04T02:16:21;99828.13;;;7.68;87.24
21276;BME280;36472;52.170;20.884;2024-02-04T02:18:57;99820.09;;;7.71;87.09
21276;BME280;36472;52.170;20.884;2024-02-04T02:21:44;99819.03;;;7.74;86.72
21276;BME280;36472;52.170;20.884;2024-02-04T02:24:32;99817.53;;;7.84;86.21
21276;BME280;36472;52.170;20.884;2024-02-04T02:27:01;99815.94;;;7.81;86.12
21276;BME280;36472;52.170;20.884;2024-02-04T02:29:30;99809.66;;;7.84;85.84
21276;BME280;36472;52.170;20.884;2024-02-04T02:32:00;99812.50;;;7.81;85.62
21276;BME280;36472;52.170;20.884;2024-02-04T02:34:31;99817.53;;;7.84;85.53
21276;BME280;36472;52.170;20.884;2024-02-04T02:37:18;99813.69;;;7.90;85.07
21276;BME280;36472;52.170;20.884;2024-02-04T02:39:59;99814.53;;;7.90;84.84
21276;BME280;36472;52.170;20.884;2024-02-04T02:42:30;99808.28;;;7.93;84.42
21276;BME280;36472;52.170;20.884;2024-02-04T02:45:01;99811.47;;;7.83;84.65
21276;BME280;36472;52.170;20.884;2024-02-04T02:47:31;99817.66;;;7.82;84.37
21276;BME280;36472;52.170;20.884;2024-02-04T02:50:01;99805.31;;;7.84;84.42
21276;BME280;36472;52.170;20.884;2024-02-04T02:52:30;99822.00;;;7.82;84.11
21276;BME280;36472;52.170;20.884;2024-02-04T02:55:00;99821.09;;;7.83;83.94
21276;BME280;36472;52.170;20.884;2024-02-04T02:57:30;99816.50;;;7.86;83.69
21276;BME280;36472;52.170;20.884;2024-02-04T02:59:59;99815.94;;;7.81;83.62
21276;BME280;36472;52.170;20.884;2024-02-04T03:02:28;99826.88;;;7.88;83.26
21276;BME280;36472;52.170;20.884;2024-02-04T03:04:57;99826.31;;;7.83;82.66
21276;BME280;36472;52.170;20.884;2024-02-04T03:07:26;99825.50;;;7.82;82.94
21276;BME280;36472;52.170;20.884;2024-02-04T03:09:55;99832.94;;;7.89;82.75
21276;BME280;36472;52.170;20.884;2024-02-04T03:12:26;99823.44;;;7.88;82.22
21276;BME280;36472;52.170;20.884;2024-02-04T03:14:55;99809.94;;;7.94;82.15
21276;BME280;36472;52.170;20.884;2024-02-04T03:17:24;99816.13;;;7.93;81.47
21276;BME280;36472;52.170;20.884;2024-02-04T03:19:53;99817.88;;;7.92;81.94
21276;BME280;36472;52.170;20.884;2024-02-04T03:22:23;99820.41;;;7.94;81.89
21276;BME280;36472;52.170;20.884;2024-02-04T03:24:52;99807.22;;;7.95;81.45
21276;BME280;36472;52.170;20.884;2024-02-04T03:27:22;99820.41;;;7.94;81.71
21276;BME280;36472;52.170;20.884;2024-02-04T03:29:53;99812.56;;;7.94;80.69
21276;BME280;36472;52.170;20.884;2024-02-04T03:32:22;99830.88;;;7.94;80.90
21276;BME280;36472;52.170;20.884;2024-02-04T03:34:51;99822.72;;;7.98;80.13
21276;BME280;36472;52.170;20.884;2024-02-04T03:37:21;99832.94;;;7.89;78.87
21276;BME280;36472;52.170;20.884;2024-02-04T03:39:50;99839.41;;;7.83;79.47
21276;BME280;36472;52.170;20.884;2024-02-04T03:42:19;99828.47;;;7.76;79.12
21276;BME280;36472;52.170;20.884;2024-02-04T03:44:49;99826.88;;;7.88;78.58
21276;BME280;36472;52.170;20.884;2024-02-04T03:47:19;99817.44;;;7.85;78.25
21276;BME280;36472;52.170;20.884;2024-02-04T03:49:49;99812.41;;;7.82;77.67
21276;BME280;36472;52.170;20.884;2024-02-04T03:52:17;99814.81;;;7.85;77.86
21276;BME280;36472;52.170;20.884;2024-02-04T03:54:47;99827.88;;;7.85;77.52
21276;BME280;36472;52.170;20.884;2024-02-04T03:57:15;99834.16;;;7.83;77.55
21276;BME280;36472;52.170;20.884;2024-02-04T03:59:45;99840.03;;;7.86;77.66
21276;BME280;36472;52.170;20.884;2024-02-04T04:02:14;99837.16;;;7.91;77.36
21276;BME280;36472;52.170;20.884;2024-02-04T04:04:45;99826.03;;;7.88;75.89
21276;BME280;36472;52.170;20.884;2024-02-04T04:07:15;99829.94;;;7.80;76.25
21276;BME280;36472;52.170;20.884;2024-02-04T04:09:44;99832.88;;;7.76;76.30
21276;BME280;36472;52.170;20.884;2024-02-04T04:12:13;99833.72;;;7.76;75.93
21276;BME280;36472;52.170;20.884;2024-02-04T04:14:42;99845.09;;;7.75;76.27
21276;BME280;36472;52.170;20.884;2024-02-04T04:17:11;99845.88;;;7.77;75.57
21276;BME280;36472;52.170;20.884;2024-02-04T04:19:40;99842.56;;;7.74;75.45
21276;BME280;36472;52.170;20.884;2024-02-04T04:22:11;99847.94;;;7.72;75.66
21276;BME280;36472;52.170;20.884;2024-02-04T04:24:40;99841.09;;;7.70;74.22
21276;BME280;36472;52.170;20.884;2024-02-04T04:27:09;99854.94;;;7.57;75.63
21276;BME280;36472;52.170;20.884;2024-02-04T04:29:38;99863.81;;;7.40;75.85
21276;BME280;36472;52.170;20.884;2024-02-04T04:32:07;99859.84;;;7.19;77.83
21276;BME280;36472;52.170;20.884;2024-02-04T04:34:36;99869.72;;;6.99;78.95
21276;BME280;36472;52.170;20.884;2024-02-04T04:37:05;99875.09;;;6.82;80.74
21276;BME280;36472;52.170;20.884;2024-02-04T04:39:36;99856.59;;;6.70;82.25
21276;BME280;36472;52.170;20.884;2024-02-04T04:42:05;99859.66;;;6.63;82.79
21276;BME280;36472;52.170;20.884;2024-02-04T04:44:35;99854.44;;;6.63;82.58
21276;BME280;36472;52.170;20.884;2024-02-04T04:47:04;99858.22;;;6.57;82.18
21276;BME280;36472;52.170;20.884;2024-02-04T04:49:33;99860.50;;;6.63;82.21
21276;BME280;36472;52.170;20.884;2024-02-04T04:52:02;99854.53;;;6.61;82.18
21276;BME280;36472;52.170;20.884;2024-02-04T04:54:31;99860.50;;;6.63;82.54
21276;BME280;36472;52.170;20.884;2024-02-04T04:57:01;99855.53;;;6.59;82.48
21276;BME280;36472;52.170;20.884;2024-02-04T04:59:30;99865.06;;;6.60;82.50
21276;BME280;36472;52.170;20.884;2024-02-04T05:01:59;99869.06;;;6.65;82.48
21276;BME280;36472;52.170;20.884;2024-02-04T05:04:29;99869.00;;;6.67;82.34
21276;BME280;36472;52.170;20.884;2024-02-04T05:06:57;99872.25;;;6.70;81.87
21276;BME280;36472;52.170;20.884;2024-02-04T05:09:27;99873.41;;;6.81;81.38
21276;BME280;36472;52.170;20.884;2024-02-04T05:11:55;99881.34;;;6.79;81.26
21276;BME280;36472;52.170;20.884;2024-02-04T05:14:26;99866.41;;;6.81;80.78
21276;BME280;36472;52.170;20.884;2024-02-04T05:16:55;99861.00;;;6.84;80.54
21276;BME280;36472;52.170;20.884;2024-02-04T05:19:24;99857.03;;;6.93;80.62
21276;BME280;36472;52.170;20.884;2024-02-04T05:21:53;99869.72;;;6.99;80.50
21276;BME280;36472;52.170;20.884;2024-02-04T05:24:22;99883.22;;;6.91;80.05
21276;BME280;36472;52.170;20.884;2024-02-04T05:26:51;99894.34;;;6.95;80.68
21276;BME280;36472;52.170;20.884;2024-02-04T05:29:20;99892.75;;;6.92;80.04
21276;BME280;36472;52.170;20.884;2024-02-04T05:31:50;99881.34;;;6.79;79.07
21276;BME280;36472;52.170;20.884;2024-02-04T05:34:19;99881.41;;;6.78;79.49
21276;BME280;36472;52.170;20.884;2024-02-04T05:36:48;99881.06;;;6.84;79.54
21276;BME280;36472;52.170;20.884;2024-02-04T05:39:17;99883.28;;;6.76;79.74
21276;BME280;36472;52.170;20.884;2024-02-04T05:41:47;99892.81;;;6.77;79.51
21276;BME280;36472;52.170;20.884;2024-02-04T05:44:16;99893.25;;;6.69;79.32
21276;BME280;36472;52.170;20.884;2024-02-04T05:46:44;99896.69;;;6.69;78.26
21276;BME280;36472;52.170;20.884;2024-02-04T05:49:15;99894.47;;;6.78;78.37
21276;BME280;36472;52.170;20.884;2024-02-04T05:51:44;99901.16;;;6.67;78.42
21276;BME280;36472;52.170;20.884;2024-02-04T05:54:14;99896.69;;;6.69;78.71
21276;BME280;36472;52.170;20.884;2024-02-04T05:56:43;99891.66;;;6.66;78.64
21276;BME280;36472;52.170;20.884;2024-02-04T05:59:12;99891.81;;;6.63;79.08
21276;BME280;36472;52.170;20.884;2024-02-04T06:01:40;99887.53;;;6.62;79.14
21276;BME280;36472;52.170;20.884;2024-02-04T06:04:10;99888.97;;;6.68;79.24
21276;BME280;36472;52.170;20.884;2024-02-04T06:06:40;99880.81;;;6.58;79.68
21276;BME280;36472;52.170;20.884;2024-02-04T06:09:10;99883.16;;;6.63;79.98
21276;BME280;36472;52.170;20.884;2024-02-04T06:11:39;99872.03;;;6.59;80.00
21276;BME280;36472;52.170;20.884;2024-02-04T06:14:08;99862.34;;;6.61;80.61
21276;BME280;36472;52.170;20.884;2024-02-04T06:16:37;99869.81;;;6.67;80.80
21276;BME280;36472;52.170;20.884;2024-02-04T06:19:06;99872.16;;;6.58;81.21
21276;BME280;36472;52.170;20.884;2024-02-04T06:21:37;99867.50;;;6.63;81.22
21276;BME280;36472;52.170;20.884;2024-02-04T06:24:07;99866.47;;;6.65;81.16
21276;BME280;36472;52.170;20.884;2024-02-04T06:26:38;99861.59;;;6.59;81.37
21276;BME280;36472;52.170;20.884;2024-02-04T06:29:07;99870.69;;;6.68;81.17
21276;BME280;36472;52.170;20.884;2024-02-04T06:31:36;99870.69;;;6.68;80.99
21276;BME280;36472;52.170;20.884;2024-02-04T06:34:05;99868.91;;;6.68;81.23
21276;BME280;36472;52.170;20.884;2024-02-04T06:36:34;99869.69;;;6.54;81.39
21276;BME280;36472;52.170;20.884;2024-02-04T06:39:03;99867.91;;;6.55;81.94
21276;BME280;36472;52.170;20.884;2024-02-04T06:41:36;99866.44;;;6.51;82.20
21276;BME280;36472;52.170;20.884;2024-02-04T06:44:05;99866.59;;;6.48;82.56
21276;BME280;36472;52.170;20.884;2024-02-04T06:46:34;99862.66;;;6.41;82.60
21276;BME280;36472;52.170;20.884;2024-02-04T06:49:03;99864.31;;;6.42;83.17
21276;BME280;36472;52.170;20.884;2024-02-04T06:51:32;99874.69;;;6.43;83.22
21276;BME280;36472;52.170;20.884;2024-02-04T06:54:01;99878.13;;;6.44;82.64
21276;BME280;36472;52.170;20.884;2024-02-04T06:56:30;99875.91;;;6.52;82.32
21276;BME280;36472;52.170;20.884;2024-02-04T06:59:01;99884.78;;;6.49;82.66
21276;BME280;36472;52.170;20.884;2024-02-04T07:01:30;99883.16;;;6.47;82.19
21276;BME280;36472;52.170;20.884;2024-02-04T07:03:59;99887.81;;;6.42;82.33
21276;BME280;36472;52.170;20.884;2024-02-04T07:06:28;99892.78;;;6.46;82.00
21276;BME280;36472;52.170;20.884;2024-02-04T07:08:57;99895.31;;;6.48;81.71
21276;BME280;36472;52.170;20.884;2024-02-04T07:11:26;99884.00;;;6.47;82.08
21276;BME280;36472;52.170;20.884;2024-02-04T07:13:55;99912.84;;;6.46;81.74
21276;BME280;36472;52.170;20.884;2024-02-04T07:16:29;99901.59;;;6.44;81.72
21276;BME280;36472;52.170;20.884;2024-02-04T07:18:58;99889.91;;;6.51;81.38
21276;BME280;36472;52.170;20.884;2024-02-04T07:21:27;99905.09;;;6.44;81.07
21276;BME280;36472;52.170;20.884;2024-02-04T07:23:56;99900.44;;;6.49;81.26
21276;BME280;36472;52.170;20.884;2024-02-04T07:26:25;99906.25;;;6.54;81.15
21276;BME280;36472;52.170;20.884;2024-02-04T07:28:54;99908.19;;;6.51;81.06
21276;BME280;36472;52.170;20.884;2024-02-04T07:31:23;99893.28;;;6.53;81.05
21276;BME280;36472;52.170;20.884;2024-02-04T07:33:53;99898.25;;;6.42;81.66
21276;BME280;36472;52.170;20.884;2024-02-04T07:36:22;99893.63;;;6.47;81.19
21276;BME280;36472;52.170;20.884;2024-02-04T07:38:51;99894.94;;;6.54;80.99
21276;BME280;36472;52.170;20.884;2024-02-04T07:41:22;99888.72;;;6.57;81.33
21276;BME280;36472;52.170;20.884;2024-02-04T07:43:52;99901.06;;;6.69;80.58
21276;BME280;36472;52.170;20.884;2024-02-04T07:46:21;99886.81;;;6.74;80.62
21276;BME280;36472;52.170;20.884;2024-02-04T07:48:50;99890.78;;;6.82;80.21
21276;BME280;36472;52.170;20.884;2024-02-04T07:51:21;99900.78;;;6.89;79.81
21276;BME280;36472;52.170;20.884;2024-02-04T07:53:50;99907.84;;;6.87;80.24
21276;BME280;36472;52.170;20.884;2024-02-04T07:56:19;99905.16;;;6.89;79.94
21276;BME280;36472;52.170;20.884;2024-02-04T07:58:48;99913.81;;;6.89;80.38
21276;BME280;36472;52.170;20.884;2024-02-04T08:01:18;99908.13;;;6.83;80.55
21276;BME280;36472;52.170;20.884;2024-02-04T08:03:47;99898.03;;;6.77;80.49
21276;BME280;36472;52.170;20.884;2024-02-04T08:06:16;99888.50;;;6.76;80.52
21276;BME280;36472;52.170;20.884;2024-02-04T08:08:47;99895.44;;;6.77;80.76
21276;BME280;36472;52.170;20.884;2024-02-04T08:11:18;99894.84;;;6.71;80.22
21276;BME280;36472;52.170;20.884;2024-02-04T08:13:47;99905.81;;;6.62;80.76
21276;BME280;36472;52.170;20.884;2024-02-04T08:16:16;99889.72;;;6.70;80.48
21276;BME280;36472;52.170;20.884;2024-02-04T08:18:46;99890.94;;;6.79;80.19
21276;BME280;36472;52.170;20.884;2024-02-04T08:21:15;99886.72;;;6.76;80.52
21276;BME280;36472;52.170;20.884;2024-02-04T08:23:44;99893.66;;;6.77;79.81
21276;BME280;36472;52.170;20.884;2024-02-04T08:26:14;99891.03;;;6.77;79.36
21276;BME280;36472;52.170;20.884;2024-02-04T08:28:43;99900.44;;;6.80;79.24
21276;BME280;36472;52.170;20.884;2024-02-04T08:31:12;99894.31;;;6.81;79.29
21276;BME280;36472;52.170;20.884;2024-02-04T08:33:42;99882.00;;;6.83;78.75
21276;BME280;36472;52.170;20.884;2024-02-04T08:36:10;99890.31;;;6.89;78.36
21276;BME280;36472;52.170;20.884;2024-02-04T08:38:40;99889.88;;;6.97;78.55
21276;BME280;36472;52.170;20.884;2024-02-04T08:41:09;99901.25;;;6.96;77.63
21276;BME280;36472;52.170;20.884;2024-02-04T08:43:39;99895.53;;;6.89;77.93
21276;BME280;36472;52.170;20.884;2024-02-04T08:46:08;99901.81;;;6.87;78.11
21276;BME280;36472;52.170;20.884;2024-02-04T08:48:41;99890.88;;;6.80;77.44
21276;BME280;36472;52.170;20.884;2024-02-04T08:51:11;99892.09;;;6.89;77.08
21276;BME280;36472;52.170;20.884;2024-02-04T08:53:41;99885.56;;;6.82;77.87
21276;BME280;36472;52.170;20.884;2024-02-04T08:56:10;99893.97;;;6.87;77.33
21276;BME280;36472;52.170;20.884;2024-02-04T08:58:41;99882.47;;;6.89;76.09
21276;BME280;36472;52.170;20.884;2024-02-04T09:01:10;99890.50;;;6.86;75.92
21276;BME280;36472;52.170;20.884;2024-02-04T09:03:39;99892.84;;;6.91;76.40
21276;BME280;36472;52.170;20.884;2024-02-04T09:06:08;99900.34;;;6.97;76.21
21276;BME280;36472;52.170;20.884;2024-02-04T09:08:37;99899.69;;;6.93;75.92
21276;BME280;36472;52.170;20.884;2024-02-04T09:11:06;99892.28;;;6.86;75.90
21276;BME280;36472;52.170;20.884;2024-02-04T09:13:35;99910.06;;;6.79;76.61
21276;BME280;36472;52.170;20.884;2024-02-04T09:16:06;99898.06;;;6.91;75.80
21276;BME280;36472;52.170;20.884;2024-02-04T09:18:36;99890.22;;;6.91;75.71
21276;BME280;36472;52.170;20.884;2024-02-04T09:21:06;99887.78;;;6.88;76.28
21276;BME280;36472;52.170;20.884;2024-02-04T09:23:35;99901.09;;;6.99;75.93
21276;BME280;36472;52.170;20.884;2024-02-04T09:26:04;99891.38;;;7.01;75.52
21276;BME280;36472;52.170;20.884;2024-02-04T09:28:33;99896.44;;;7.04;75.15
21276;BME280;36472;52.170;20.884;2024-02-04T09:31:02;99898.66;;;7.10;74.94
21276;BME280;36472;52.170;20.884;2024-02-04T09:33:33;99888.75;;;7.01;74.68
21276;BME280;36472;52.170;20.884;2024-02-04T09:36:05;99907.53;;;7.08;74.71
21276;BME280;36472;52.170;20.884;2024-02-04T09:38:34;99899.63;;;7.09;74.82
21276;BME280;36472;52.170;20.884;2024-02-04T09:41:04;99898.81;;;7.23;75.37
21276;BME280;36472;52.170;20.884;2024-02-04T09:43:35;99899.81;;;7.21;74.84
21276;BME280;36472;52.170;20.884;2024-02-04T09:46:05;99898.81;;;7.23;74.20
21276;BME280;36472;52.170;20.884;2024-02-04T09:48:39;99886.47;;;7.25;74.07
21276;BME280;36472;52.170;20.884;2024-02-04T09:51:09;99889.25;;;7.22;73.98
21276;BME280;36472;52.170;20.884;2024-02-04T09:53:44;99891.69;;;7.25;75.41
21276;BME280;36472;52.170;20.884;2024-02-04T09:56:14;99875.00;;;7.28;74.80
21276;BME280;36472;52.170;20.884;2024-02-04T09:58:46;99882.19;;;7.24;74.69
21276;BME280;36472;52.170;20.884;2024-02-04T10:01:16;99877.41;;;7.17;75.05
21276;BME280;36472;52.170;20.884;2024-02-04T10:03:49;99873.09;;;7.16;74.43
21276;BME280;36472;52.170;20.884;2024-02-04T10:06:18;99864.72;;;7.25;74.73
21276;BME280;36472;52.170;20.884;2024-02-04T10:08:47;99859.25;;;7.29;74.27
21276;BME280;36472;52.170;20.884;2024-02-04T10:11:16;99858.09;;;7.34;74.24
21276;BME280;36472;52.170;20.884;2024-02-04T10:13:47;99861.84;;;7.29;74.55
21276;BME280;36472;52.170;20.884;2024-02-04T10:16:17;99856.16;;;7.37;74.77
21276;BME280;36472;52.170;20.884;2024-02-04T10:18:48;99853.16;;;7.29;74.60
21276;BME280;36472;52.170;20.884;2024-02-04T10:21:18;99847.66;;;7.34;75.04
21276;BME280;36472;52.170;20.884;2024-02-04T10:23:49;99843.81;;;7.25;74.83
21276;BME280;36472;52.170;20.884;2024-02-04T10:26:18;99836.16;;;7.22;74.77
21276;BME280;36472;52.170;20.884;2024-02-04T10:28:49;99836.06;;;7.23;74.96
21276;BME280;36472;52.170;20.884;2024-02-04T10:31:18;99828.13;;;7.25;75.80
21276;BME280;36472;52.170;20.884;2024-02-04T10:33:50;99831.97;;;7.34;75.08
21276;BME280;36472;52.170;20.884;2024-02-04T10:36:19;99807.31;;;7.38;75.43
21276;BME280;36472;52.170;20.884;2024-02-04T10:38:48;99806.22;;;7.42;75.44
21276;BME280;36472;52.170;20.884;2024-02-04T10:41:18;99803.31;;;7.46;75.05
21276;BME280;36472;52.170;20.884;2024-02-04T10:43:47;99798.19;;;7.45;75.16
21276;BME280;36472;52.170;20.884;2024-02-04T10:46:19;99798.81;;;7.48;75.22
21276;BME280;36472;52.170;20.884;2024-02-04T10:48:55;99784.88;;;7.48;75.54
21276;BME280;36472;52.170;20.884;2024-02-04T10:51:26;99791.25;;;7.44;75.47
21276;BME280;36472;52.170;20.884;2024-02-04T10:53:56;99767.44;;;7.48;75.61
21276;BME280;36472;52.170;20.884;2024-02-04T10:56:32;99771.72;;;7.49;76.27
21276;BME280;36472;52.170;20.884;2024-02-04T10:59:07;99772.69;;;7.48;75.99
21276;BME280;36472;52.170;20.884;2024-02-04T11:01:36;99774.09;;;7.40;76.48
21276;BME280;36472;52.170;20.884;2024-02-04T11:04:10;99770.34;;;7.44;76.23
21276;BME280;36472;52.170;20.884;2024-02-04T11:06:41;99762.88;;;7.52;77.65
21276;BME280;36472;52.170;20.884;2024-02-04T11:09:13;99765.22;;;7.42;78.11
21276;BME280;36472;52.170;20.884;2024-02-04T11:11:43;99760.00;;;7.28;78.77
21276;BME280;36472;52.170;20.884;2024-02-04T11:14:17;99766.44;;;7.37;79.69
21276;BME280;36472;52.170;20.884;2024-02-04T11:17:16;99757.94;;;7.33;79.56
21276;BME280;36472;52.170;20.884;2024-02-04T11:20:15;99756.66;;;7.26;79.57
21276;BME280;36472;52.170;20.884;2024-02-04T11:23:10;99743.47;;;7.42;79.09
21276;BME280;36472;52.170;20.884;2024-02-04T11:25:46;99727.97;;;7.39;79.49
21276;BME280;36472;52.170;20.884;2024-02-04T11:28:18;99728.09;;;7.23;79.61
21276;BME280;36472;52.170;20.884;2024-02-04T11:30:48;99733.88;;;7.28;79.59
21276;BME280;36472;52.170;20.884;2024-02-04T11:33:20;99736.09;;;7.34;81.22
21276;BME280;36472;52.170;20.884;2024-02-04T11:36:02;99750.66;;;7.24;81.83
21276;BME280;36472;52.170;20.884;2024-02-04T11:38:35;99742.16;;;7.20;82.07
21276;BME280;36472;52.170;20.884;2024-02-04T11:41:05;99736.28;;;7.17;82.65
21276;BME280;36472;52.170;20.884;2024-02-04T11:43:36;99731.81;;;7.19;82.82
21276;BME280;36472;52.170;20.884;2024-02-04T11:46:16;99726.75;;;7.16;82.97
21276;BME280;36472;52.170;20.884;2024-02-04T11:48:52;99729.38;;;7.16;82.91
21276;BME280;36472;52.170;20.884;2024-02-04T11:51:24;99717.91;;;7.18;84.08
21276;BME280;36472;52.170;20.884;2024-02-04T11:53:54;99719.09;;;7.27;84.05
21276;BME280;36472;52.170;20.884;2024-02-04T11:56:25;99712.41;;;7.23;82.94
21276;BME280;36472;52.170;20.884;2024-02-04T11:58:54;99690.41;;;7.13;83.09
21276;BME280;36472;52.170;20.884;2024-02-04T12:01:24;99706.88;;;7.27;82.90
21276;BME280;36472;52.170;20.884;2024-02-04T12:03:55;99699.72;;;7.31;82.09
21276;BME280;36472;52.170;20.884;2024-02-04T12:06:25;99684.41;;;7.25;82.66
21276;BME280;36472;52.170;20.884;2024-02-04T12:08:55;99703.41;;;7.41;82.31
21276;BME280;36472;52.170;20.884;2024-02-04T12:11:25;99689.56;;;7.39;82.36
21276;BME280;36472;52.170;20.884;2024-02-04T12:13:55;99675.78;;;7.37;82.55
21276;BME280;36472;52.170;20.884;2024-02-04T12:16:25;99669.97;;;7.46;82.95
21276;BME280;36472;52.170;20.884;2024-02-04T12:18:54;99675.75;;;7.52;82.61
21276;BME280;36472;52.170;20.884;2024-02-04T12:21:25;99665.84;;;7.57;82.58
21276;BME280;36472;52.170;20.884;2024-02-04T12:23:54;99667.59;;;7.56;82.20
21276;BME280;36472;52.170;20.884;2024-02-04T12:26:23;99650.16;;;7.57;82.09
21276;BME280;36472;52.170;20.884;2024-02-04T12:28:53;99656.09;;;7.59;81.68
21276;BME280;36472;52.170;20.884;2024-02-04T12:31:26;99663.53;;;7.65;81.41
21276;BME280;36472;52.170;20.884;2024-02-04T12:33:58;99658.41;;;7.63;81.50
21276;BME280;36472;52.170;20.884;2024-02-04T12:36:30;99658.22;;;7.66;81.19
21276;BME280;36472;52.170;20.884;2024-02-04T12:39:01;99645.22;;;7.52;82.05
21276;BME280;36472;52.170;20.884;2024-02-04T12:41:31;99650.25;;;7.55;82.03
21276;BME280;36472;52.170;20.884;2024-02-04T12:44:01;99640.25;;;7.47;82.16
21276;BME280;36472;52.170;20.884;2024-02-04T12:46:32;99636.38;;;7.67;81.68
21276;BME280;36472;52.170;20.884;2024-02-04T12:49:02;99637.63;;;7.75;81.13
21276;BME280;36472;52.170;20.884;2024-02-04T12:51:35;99634.28;;;7.73;80.34
21276;BME280;36472;52.170;20.884;2024-02-04T12:54:06;99642.88;;;7.75;80.83
21276;BME280;36472;52.170;20.884;2024-02-04T12:56:45;99630.22;;;7.81;80.04
21276;BME280;36472;52.170;20.884;2024-02-04T12:59:27;99632.34;;;7.89;80.31
21276;BME280;36472;52.170;20.884;2024-02-04T13:01:59;99623.78;;;7.60;82.15
21276;BME280;36472;52.170;20.884;2024-02-04T13:04:34;99612.59;;;7.58;83.73
21276;BME280;36472;52.170;20.884;2024-02-04T13:07:08;99622.91;;;7.46;84.52
21276;BME280;36472;52.170;20.884;2024-02-04T13:09:39;99619.53;;;7.44;86.04
21276;BME280;36472;52.170;20.884;2024-02-04T13:12:10;99619.41;;;7.33;87.09
21276;BME280;36472;52.170;20.884;2024-02-04T13:14:41;99615.91;;;7.20;89.00
21276;BME280;36472;52.170;20.884;2024-02-04T13:17:12;99625.44;;;7.06;89.20